sensor_id;sensor_type;location;lat;lon;timestamp;P1;durP1;ratioP1;P2;durP2;ratioP2
62903;SDS011;49000;50.698;13.322;2024-03-02T00:00:57;34.50;;;21.47;;
62903;SDS011;49000;50.698;13.322;2024-03-02T00:03:22;37.53;;;21.90;;
62903;SDS011;49000;50.698;13.322;2024-03-02T00:05:49;34.53;;;22.40;;
62903;SDS011;49000;50.698;13.322;2024-03-02T00:08:19;36.93;;;23.80;;
62903;SDS011;49000;50.698;13.322;2024-03-02T00:10:49;43.37;;;24.47;;
62903;SDS011;49000;50.698;13.322;2024-03-02T00:13:15;37.77;;;23.40;;
62903;SDS011;49000;50.698;13.322;2024-03-02T00:15:47;47.37;;;26.53;;
62903;SDS011;49000;50.698;13.322;2024-03-02T00:18:16;37.97;;;22.53;;
62903;SDS011;49000;50.698;13.322;2024-03-02T00:20:44;41.60;;;24.90;;
62903;SDS011;49000;50.698;13.322;2024-03-02T00:23:10;45.93;;;26.53;;
62903;SDS011;49000;50.698;13.322;2024-03-02T00:25:48;42.37;;;23.20;;
62903;SDS011;49000;50.698;13.322;2024-03-02T00:33:27;60.00;;;32.73;;
62903;SDS011;49000;50.698;13.322;2024-03-02T00:35:57;53.47;;;29.53;;
62903;SDS011;49000;50.698;13.322;2024-03-02T00:38:24;52.60;;;29.33;;
62903;SDS011;49000;50.698;13.322;2024-03-02T00:40:50;51.93;;;28.60;;
62903;SDS011;49000;50.698;13.322;2024-03-02T00:45:47;46.40;;;25.07;;
62903;SDS011;49000;50.698;13.322;2024-03-02T00:48:14;51.13;;;27.53;;
62903;SDS011;49000;50.698;13.322;2024-03-02T00:50:42;45.97;;;25.67;;
62903;SDS011;49000;50.698;13.322;2024-03-02T00:53:10;51.03;;;24.57;;
62903;SDS011;49000;50.698;13.322;2024-03-02T00:55:36;50.17;;;26.87;;
62903;SDS011;49000;50.698;13.322;2024-03-02T00:58:03;47.47;;;25.40;;
62903;SDS011;49000;50.698;13.322;2024-03-02T01:00:28;50.03;;;27.13;;
62903;SDS011;49000;50.698;13.322;2024-03-02T01:02:54;49.43;;;26.30;;
62903;SDS011;49000;50.698;13.322;2024-03-02T01:05:19;53.10;;;26.83;;
62903;SDS011;49000;50.698;13.322;2024-03-02T01:07:45;51.37;;;25.80;;
62903;SDS011;49000;50.698;13.322;2024-03-02T01:10:10;53.23;;;26.43;;
62903;SDS011;49000;50.698;13.322;2024-03-02T01:12:36;47.37;;;24.60;;
62903;SDS011;49000;50.698;13.322;2024-03-02T01:15:01;48.37;;;24.43;;
62903;SDS011;49000;50.698;13.322;2024-03-02T01:17:30;54.57;;;26.60;;
62903;SDS011;49000;50.698;13.322;2024-03-02T01:19:55;46.20;;;24.17;;
62903;SDS011;49000;50.698;13.322;2024-03-02T01:22:21;45.70;;;23.97;;
62903;SDS011;49000;50.698;13.322;2024-03-02T01:24:50;56.27;;;26.70;;
62903;SDS011;49000;50.698;13.322;2024-03-02T01:27:16;55.63;;;25.13;;
62903;SDS011;49000;50.698;13.322;2024-03-02T01:29:41;58.50;;;27.27;;
62903;SDS011;49000;50.698;13.322;2024-03-02T01:32:06;58.37;;;26.40;;
62903;SDS011;49000;50.698;13.322;2024-03-02T01:34:32;53.53;;;25.50;;
62903;SDS011;49000;50.698;13.322;2024-03-02T01:36:57;59.20;;;27.07;;
62903;SDS011;49000;50.698;13.322;2024-03-02T01:39:23;54.27;;;27.13;;
62903;SDS011;49000;50.698;13.322;2024-03-02T01:41:48;51.80;;;24.83;;
62903;SDS011;49000;50.698;13.322;2024-03-02T01:44:14;54.00;;;27.23;;
62903;SDS011;49000;50.698;13.322;2024-03-02T01:46:39;54.97;;;26.57;;
62903;SDS011;49000;50.698;13.322;2024-03-02T01:49:05;51.77;;;24.17;;
62903;SDS011;49000;50.698;13.322;2024-03-02T01:51:31;56.67;;;26.87;;
62903;SDS011;49000;50.698;13.322;2024-03-02T01:53:57;57.70;;;27.67;;
62903;SDS011;49000;50.698;13.322;2024-03-02T01:56:22;51.77;;;25.97;;
62903;SDS011;49000;50.698;13.322;2024-03-02T01:58:48;60.00;;;27.73;;
62903;SDS011;49000;50.698;13.322;2024-03-02T02:01:13;71.77;;;28.67;;
62903;SDS011;49000;50.698;13.322;2024-03-02T02:03:39;62.70;;;28.90;;
62903;SDS011;49000;50.698;13.322;2024-03-02T02:06:05;69.40;;;29.23;;
62903;SDS011;49000;50.698;13.322;2024-03-02T02:08:32;65.60;;;27.73;;
62903;SDS011;49000;50.698;13.322;2024-03-02T02:10:57;67.37;;;28.40;;
62903;SDS011;49000;50.698;13.322;2024-03-02T02:13:23;60.27;;;26.47;;
62903;SDS011;49000;50.698;13.322;2024-03-02T02:15:49;69.13;;;27.90;;
62903;SDS011;49000;50.698;13.322;2024-03-02T02:18:15;63.40;;;28.47;;
62903;SDS011;49000;50.698;13.322;2024-03-02T02:20:40;56.70;;;26.77;;
62903;SDS011;49000;50.698;13.322;2024-03-02T02:23:06;69.10;;;29.30;;
62903;SDS011;49000;50.698;13.322;2024-03-02T02:25:34;61.07;;;27.87;;
62903;SDS011;49000;50.698;13.322;2024-03-02T02:28:00;57.83;;;26.30;;
62903;SDS011;49000;50.698;13.322;2024-03-02T02:30:29;53.30;;;25.57;;
62903;SDS011;49000;50.698;13.322;2024-03-02T02:32:56;62.83;;;27.97;;
62903;SDS011;49000;50.698;13.322;2024-03-02T02:35:22;55.43;;;25.47;;
62903;SDS011;49000;50.698;13.322;2024-03-02T02:37:49;50.43;;;25.13;;
62903;SDS011;49000;50.698;13.322;2024-03-02T02:40:15;57.03;;;25.70;;
62903;SDS011;49000;50.698;13.322;2024-03-02T02:42:41;56.53;;;24.93;;
62903;SDS011;49000;50.698;13.322;2024-03-02T02:45:07;50.40;;;24.20;;
62903;SDS011;49000;50.698;13.322;2024-03-02T02:47:32;56.13;;;25.23;;
62903;SDS011;49000;50.698;13.322;2024-03-02T02:50:02;52.27;;;24.27;;
62903;SDS011;49000;50.698;13.322;2024-03-02T02:52:34;53.73;;;24.33;;
62903;SDS011;49000;50.698;13.322;2024-03-02T02:55:02;55.70;;;24.53;;
62903;SDS011;49000;50.698;13.322;2024-03-02T02:57:28;51.43;;;24.23;;
62903;SDS011;49000;50.698;13.322;2024-03-02T02:59:56;40.90;;;20.73;;
62903;SDS011;49000;50.698;13.322;2024-03-02T03:02:22;41.80;;;22.53;;
62903;SDS011;49000;50.698;13.322;2024-03-02T03:04:47;49.40;;;23.60;;
62903;SDS011;49000;50.698;13.322;2024-03-02T03:07:13;43.07;;;21.47;;
62903;SDS011;49000;50.698;13.322;2024-03-02T03:09:38;40.40;;;20.43;;
62903;SDS011;49000;50.698;13.322;2024-03-02T03:12:04;42.40;;;21.70;;
62903;SDS011;49000;50.698;13.322;2024-03-02T03:14:29;40.33;;;21.07;;
62903;SDS011;49000;50.698;13.322;2024-03-02T03:16:55;37.90;;;22.03;;
62903;SDS011;49000;50.698;13.322;2024-03-02T03:19:20;43.07;;;21.67;;
62903;SDS011;49000;50.698;13.322;2024-03-02T03:21:46;43.03;;;22.17;;
62903;SDS011;49000;50.698;13.322;2024-03-02T03:24:11;48.47;;;23.33;;
62903;SDS011;49000;50.698;13.322;2024-03-02T03:26:37;46.80;;;23.00;;
62903;SDS011;49000;50.698;13.322;2024-03-02T03:29:02;42.10;;;21.87;;
62903;SDS011;49000;50.698;13.322;2024-03-02T03:31:28;42.80;;;21.47;;
62903;SDS011;49000;50.698;13.322;2024-03-02T03:33:54;37.57;;;20.03;;
62903;SDS011;49000;50.698;13.322;2024-03-02T03:36:20;41.10;;;20.93;;
62903;SDS011;49000;50.698;13.322;2024-03-02T03:38:45;34.20;;;18.83;;
62903;SDS011;49000;50.698;13.322;2024-03-02T03:41:11;32.77;;;18.30;;
62903;SDS011;49000;50.698;13.322;2024-03-02T03:43:36;34.10;;;18.27;;
62903;SDS011;49000;50.698;13.322;2024-03-02T03:46:02;37.53;;;18.97;;
62903;SDS011;49000;50.698;13.322;2024-03-02T03:48:28;41.87;;;19.70;;
62903;SDS011;49000;50.698;13.322;2024-03-02T03:50:55;34.03;;;17.90;;
62903;SDS011;49000;50.698;13.322;2024-03-02T03:53:21;33.03;;;17.33;;
62903;SDS011;49000;50.698;13.322;2024-03-02T03:55:47;29.47;;;17.43;;
62903;SDS011;49000;50.698;13.322;2024-03-02T03:58:14;27.13;;;16.33;;
62903;SDS011;49000;50.698;13.322;2024-03-02T04:00:41;26.67;;;14.90;;
62903;SDS011;49000;50.698;13.322;2024-03-02T04:03:07;26.10;;;14.90;;
62903;SDS011;49000;50.698;13.322;2024-03-02T04:05:32;24.63;;;13.93;;
62903;SDS011;49000;50.698;13.322;2024-03-02T04:07:58;20.53;;;13.43;;
62903;SDS011;49000;50.698;13.322;2024-03-02T04:10:23;23.33;;;14.07;;
62903;SDS011;49000;50.698;13.322;2024-03-02T04:12:49;23.40;;;13.60;;
62903;SDS011;49000;50.698;13.322;2024-03-02T04:15:15;22.83;;;13.43;;
62903;SDS011;49000;50.698;13.322;2024-03-02T04:17:41;20.30;;;12.47;;
62903;SDS011;49000;50.698;13.322;2024-03-02T04:20:06;23.67;;;13.57;;
62903;SDS011;49000;50.698;13.322;2024-03-02T04:22:33;19.77;;;12.63;;
62903;SDS011;49000;50.698;13.322;2024-03-02T04:25:00;21.93;;;14.30;;
62903;SDS011;49000;50.698;13.322;2024-03-02T04:27:26;17.87;;;11.93;;
62903;SDS011;49000;50.698;13.322;2024-03-02T04:29:51;17.70;;;11.83;;
62903;SDS011;49000;50.698;13.322;2024-03-02T04:32:16;18.60;;;12.13;;
62903;SDS011;49000;50.698;13.322;2024-03-02T04:34:42;20.77;;;12.37;;
62903;SDS011;49000;50.698;13.322;2024-03-02T04:37:07;16.47;;;11.13;;
62903;SDS011;49000;50.698;13.322;2024-03-02T04:39:34;16.00;;;10.93;;
62903;SDS011;49000;50.698;13.322;2024-03-02T04:42:00;18.80;;;11.80;;
62903;SDS011;49000;50.698;13.322;2024-03-02T04:44:26;20.83;;;12.03;;
62903;SDS011;49000;50.698;13.322;2024-03-02T04:46:51;18.23;;;11.80;;
62903;SDS011;49000;50.698;13.322;2024-03-02T04:49:17;22.80;;;12.10;;
62903;SDS011;49000;50.698;13.322;2024-03-02T04:51:42;19.53;;;11.60;;
62903;SDS011;49000;50.698;13.322;2024-03-02T04:54:07;21.33;;;12.60;;
62903;SDS011;49000;50.698;13.322;2024-03-02T04:56:33;17.67;;;11.60;;
62903;SDS011;49000;50.698;13.322;2024-03-02T04:59:14;17.53;;;11.20;;
62903;SDS011;49000;50.698;13.322;2024-03-02T05:01:41;20.83;;;11.07;;
62903;SDS011;49000;50.698;13.322;2024-03-02T05:04:06;17.83;;;12.03;;
62903;SDS011;49000;50.698;13.322;2024-03-02T05:06:31;19.80;;;11.17;;
62903;SDS011;49000;50.698;13.322;2024-03-02T05:08:57;19.73;;;12.17;;
62903;SDS011;49000;50.698;13.322;2024-03-02T05:11:22;16.27;;;11.37;;
62903;SDS011;49000;50.698;13.322;2024-03-02T05:14:13;18.07;;;11.00;;
62903;SDS011;49000;50.698;13.322;2024-03-02T05:16:39;16.33;;;11.20;;
62903;SDS011;49000;50.698;13.322;2024-03-02T05:19:06;18.27;;;10.50;;
62903;SDS011;49000;50.698;13.322;2024-03-02T05:21:32;16.47;;;9.53;;
62903;SDS011;49000;50.698;13.322;2024-03-02T05:23:58;14.50;;;9.97;;
62903;SDS011;49000;50.698;13.322;2024-03-02T05:26:24;16.40;;;10.20;;
62903;SDS011;49000;50.698;13.322;2024-03-02T05:28:49;15.00;;;9.87;;
62903;SDS011;49000;50.698;13.322;2024-03-02T05:31:15;14.40;;;9.93;;
62903;SDS011;49000;50.698;13.322;2024-03-02T05:33:41;16.17;;;10.80;;
62903;SDS011;49000;50.698;13.322;2024-03-02T05:36:07;15.57;;;9.93;;
62903;SDS011;49000;50.698;13.322;2024-03-02T05:38:36;14.67;;;9.10;;
62903;SDS011;49000;50.698;13.322;2024-03-02T05:41:01;13.73;;;9.13;;
62903;SDS011;49000;50.698;13.322;2024-03-02T05:43:27;14.70;;;9.00;;
62903;SDS011;49000;50.698;13.322;2024-03-02T05:45:53;14.00;;;9.73;;
62903;SDS011;49000;50.698;13.322;2024-03-02T05:48:19;14.97;;;8.47;;
62903;SDS011;49000;50.698;13.322;2024-03-02T05:50:44;13.87;;;9.77;;
62903;SDS011;49000;50.698;13.322;2024-03-02T05:53:10;15.37;;;9.10;;
62903;SDS011;49000;50.698;13.322;2024-03-02T05:55:35;14.17;;;10.03;;
62903;SDS011;49000;50.698;13.322;2024-03-02T05:58:01;12.73;;;8.73;;
62903;SDS011;49000;50.698;13.322;2024-03-02T06:00:45;12.80;;;9.20;;
62903;SDS011;49000;50.698;13.322;2024-03-02T06:03:11;13.50;;;8.93;;
62903;SDS011;49000;50.698;13.322;2024-03-02T06:05:36;13.43;;;9.53;;
62903;SDS011;49000;50.698;13.322;2024-03-02T06:08:02;13.67;;;8.73;;
62903;SDS011;49000;50.698;13.322;2024-03-02T06:10:27;14.20;;;8.87;;
62903;SDS011;49000;50.698;13.322;2024-03-02T06:12:53;13.10;;;8.80;;
62903;SDS011;49000;50.698;13.322;2024-03-02T06:15:18;13.17;;;8.50;;
62903;SDS011;49000;50.698;13.322;2024-03-02T06:17:44;11.93;;;8.73;;
62903;SDS011;49000;50.698;13.322;2024-03-02T06:20:09;12.60;;;8.90;;
62903;SDS011;49000;50.698;13.322;2024-03-02T06:22:35;13.73;;;9.13;;
62903;SDS011;49000;50.698;13.322;2024-03-02T06:25:01;11.03;;;8.30;;
62903;SDS011;49000;50.698;13.322;2024-03-02T06:27:26;13.83;;;9.40;;
62903;SDS011;49000;50.698;13.322;2024-03-02T06:29:52;12.37;;;9.10;;
62903;SDS011;49000;50.698;13.322;2024-03-02T06:32:17;14.57;;;9.27;;
62903;SDS011;49000;50.698;13.322;2024-03-02T06:34:42;13.27;;;9.40;;
62903;SDS011;49000;50.698;13.322;2024-03-02T06:37:08;14.40;;;9.83;;
62903;SDS011;49000;50.698;13.322;2024-03-02T06:39:33;13.53;;;8.57;;
62903;SDS011;49000;50.698;13.322;2024-03-02T06:41:59;14.60;;;9.70;;
62903;SDS011;49000;50.698;13.322;2024-03-02T06:44:25;11.63;;;8.20;;
62903;SDS011;49000;50.698;13.322;2024-03-02T06:46:50;12.43;;;8.90;;
62903;SDS011;49000;50.698;13.322;2024-03-02T06:49:16;11.30;;;7.60;;
62903;SDS011;49000;50.698;13.322;2024-03-02T06:51:43;12.37;;;8.03;;
62903;SDS011;49000;50.698;13.322;2024-03-02T06:54:08;12.33;;;8.40;;
62903;SDS011;49000;50.698;13.322;2024-03-02T06:56:34;13.27;;;8.43;;
62903;SDS011;49000;50.698;13.322;2024-03-02T06:58:59;12.20;;;7.93;;
62903;SDS011;49000;50.698;13.322;2024-03-02T07:01:25;13.67;;;9.03;;
62903;SDS011;49000;50.698;13.322;2024-03-02T07:03:51;14.80;;;9.37;;
62903;SDS011;49000;50.698;13.322;2024-03-02T07:06:17;15.83;;;9.63;;
62903;SDS011;49000;50.698;13.322;2024-03-02T07:08:42;13.83;;;9.13;;
62903;SDS011;49000;50.698;13.322;2024-03-02T07:11:08;10.57;;;7.77;;
62903;SDS011;49000;50.698;13.322;2024-03-02T07:13:33;14.13;;;9.50;;
62903;SDS011;49000;50.698;13.322;2024-03-02T07:15:59;12.23;;;8.37;;
62903;SDS011;49000;50.698;13.322;2024-03-02T07:18:25;12.67;;;8.87;;
62903;SDS011;49000;50.698;13.322;2024-03-02T07:20:50;12.17;;;8.80;;
62903;SDS011;49000;50.698;13.322;2024-03-02T07:23:16;15.10;;;9.23;;
62903;SDS011;49000;50.698;13.322;2024-03-02T07:25:41;15.90;;;10.37;;
62903;SDS011;49000;50.698;13.322;2024-03-02T07:28:07;15.63;;;10.03;;
62903;SDS011;49000;50.698;13.322;2024-03-02T07:30:32;16.13;;;10.70;;
62903;SDS011;49000;50.698;13.322;2024-03-02T07:32:58;17.20;;;10.80;;
62903;SDS011;49000;50.698;13.322;2024-03-02T07:35:24;16.67;;;10.00;;
62903;SDS011;49000;50.698;13.322;2024-03-02T07:37:52;13.73;;;9.73;;
62903;SDS011;49000;50.698;13.322;2024-03-02T07:40:18;19.80;;;11.73;;
62903;SDS011;49000;50.698;13.322;2024-03-02T07:42:44;21.90;;;12.07;;
62903;SDS011;49000;50.698;13.322;2024-03-02T07:45:10;21.17;;;12.27;;
62903;SDS011;49000;50.698;13.322;2024-03-02T07:47:36;22.07;;;13.57;;
62903;SDS011;49000;50.698;13.322;2024-03-02T07:50:01;20.40;;;13.10;;
62903;SDS011;49000;50.698;13.322;2024-03-02T07:52:27;19.17;;;12.77;;
62903;SDS011;49000;50.698;13.322;2024-03-02T07:54:53;23.13;;;14.27;;
62903;SDS011;49000;50.698;13.322;2024-03-02T07:57:19;24.77;;;13.87;;
62903;SDS011;49000;50.698;13.322;2024-03-02T07:59:44;20.40;;;13.00;;
62903;SDS011;49000;50.698;13.322;2024-03-02T08:02:10;20.73;;;12.97;;
62903;SDS011;49000;50.698;13.322;2024-03-02T08:04:37;20.47;;;13.07;;
62903;SDS011;49000;50.698;13.322;2024-03-02T08:07:03;19.93;;;12.03;;
62903;SDS011;49000;50.698;13.322;2024-03-02T08:09:29;24.03;;;13.70;;
62903;SDS011;49000;50.698;13.322;2024-03-02T08:11:54;17.17;;;11.17;;
62903;SDS011;49000;50.698;13.322;2024-03-02T08:14:21;20.03;;;12.83;;
62903;SDS011;49000;50.698;13.322;2024-03-02T08:16:47;17.97;;;11.63;;
62903;SDS011;49000;50.698;13.322;2024-03-02T08:19:12;19.13;;;11.70;;
62903;SDS011;49000;50.698;13.322;2024-03-02T08:21:38;19.47;;;11.93;;
62903;SDS011;49000;50.698;13.322;2024-03-02T08:24:03;17.20;;;11.60;;
62903;SDS011;49000;50.698;13.322;2024-03-02T08:26:29;20.13;;;12.50;;
62903;SDS011;49000;50.698;13.322;2024-03-02T08:28:56;19.03;;;11.57;;
62903;SDS011;49000;50.698;13.322;2024-03-02T08:31:22;19.80;;;12.17;;
62903;SDS011;49000;50.698;13.322;2024-03-02T08:33:48;19.90;;;12.90;;
62903;SDS011;49000;50.698;13.322;2024-03-02T08:36:13;19.03;;;11.93;;
62903;SDS011;49000;50.698;13.322;2024-03-02T08:38:39;18.73;;;12.13;;
62903;SDS011;49000;50.698;13.322;2024-03-02T08:41:05;23.30;;;13.17;;
62903;SDS011;49000;50.698;13.322;2024-03-02T08:43:32;20.47;;;12.80;;
62903;SDS011;49000;50.698;13.322;2024-03-02T08:45:58;20.13;;;12.10;;
62903;SDS011;49000;50.698;13.322;2024-03-02T08:48:23;19.90;;;11.83;;
62903;SDS011;49000;50.698;13.322;2024-03-02T08:50:49;20.97;;;12.07;;
62903;SDS011;49000;50.698;13.322;2024-03-02T08:53:14;17.53;;;11.40;;
62903;SDS011;49000;50.698;13.322;2024-03-02T08:55:44;19.33;;;11.67;;
62903;SDS011;49000;50.698;13.322;2024-03-02T08:58:10;19.03;;;11.43;;
62903;SDS011;49000;50.698;13.322;2024-03-02T09:00:36;20.77;;;12.40;;
62903;SDS011;49000;50.698;13.322;2024-03-02T09:03:01;20.20;;;12.33;;
62903;SDS011;49000;50.698;13.322;2024-03-02T09:05:27;18.40;;;10.43;;
62903;SDS011;49000;50.698;13.322;2024-03-02T09:07:52;14.53;;;9.83;;
62903;SDS011;49000;50.698;13.322;2024-03-02T09:10:18;19.57;;;14.50;;
62903;SDS011;49000;50.698;13.322;2024-03-02T09:12:43;16.57;;;10.97;;
62903;SDS011;49000;50.698;13.322;2024-03-02T09:15:09;18.70;;;12.87;;
62903;SDS011;49000;50.698;13.322;2024-03-02T09:17:34;13.53;;;9.43;;
62903;SDS011;49000;50.698;13.322;2024-03-02T09:20:00;18.57;;;12.60;;
62903;SDS011;49000;50.698;13.322;2024-03-02T09:22:25;16.30;;;11.83;;
62903;SDS011;49000;50.698;13.322;2024-03-02T09:24:51;16.70;;;11.67;;
62903;SDS011;49000;50.698;13.322;2024-03-02T09:27:16;18.97;;;12.07;;
62903;SDS011;49000;50.698;13.322;2024-03-02T09:29:42;14.43;;;10.47;;
62903;SDS011;49000;50.698;13.322;2024-03-02T09:32:08;16.23;;;11.53;;
62903;SDS011;49000;50.698;13.322;2024-03-02T09:34:37;19.00;;;16.13;;
62903;SDS011;49000;50.698;13.322;2024-03-02T09:37:02;22.33;;;19.00;;
62903;SDS011;49000;50.698;13.322;2024-03-02T09:39:29;15.83;;;12.63;;
62903;SDS011;49000;50.698;13.322;2024-03-02T09:41:54;15.80;;;12.17;;
62903;SDS011;49000;50.698;13.322;2024-03-02T09:44:20;17.60;;;13.33;;
62903;SDS011;49000;50.698;13.322;2024-03-02T09:46:50;14.63;;;11.10;;
62903;SDS011;49000;50.698;13.322;2024-03-02T09:49:16;15.70;;;10.90;;
62903;SDS011;49000;50.698;13.322;2024-03-02T09:51:45;13.23;;;9.37;;
62903;SDS011;49000;50.698;13.322;2024-03-02T09:54:13;12.63;;;9.60;;
62903;SDS011;49000;50.698;13.322;2024-03-02T09:56:40;17.50;;;11.33;;
62903;SDS011;49000;50.698;13.322;2024-03-02T09:59:05;11.27;;;8.30;;
62903;SDS011;49000;50.698;13.322;2024-03-02T10:01:31;11.87;;;9.10;;
62903;SDS011;49000;50.698;13.322;2024-03-02T10:03:59;12.17;;;8.60;;
62903;SDS011;49000;50.698;13.322;2024-03-02T10:06:26;13.70;;;9.70;;
62903;SDS011;49000;50.698;13.322;2024-03-02T10:08:52;12.10;;;8.83;;
62903;SDS011;49000;50.698;13.322;2024-03-02T10:11:25;15.00;;;9.23;;
62903;SDS011;49000;50.698;13.322;2024-03-02T10:14:04;14.20;;;9.03;;
62903;SDS011;49000;50.698;13.322;2024-03-02T10:16:36;15.73;;;9.80;;
62903;SDS011;49000;50.698;13.322;2024-03-02T10:21:48;13.17;;;8.90;;
62903;SDS011;49000;50.698;13.322;2024-03-02T10:24:14;11.70;;;8.50;;
62903;SDS011;49000;50.698;13.322;2024-03-02T10:26:40;11.83;;;8.50;;
62903;SDS011;49000;50.698;13.322;2024-03-02T10:29:07;14.37;;;9.33;;
62903;SDS011;49000;50.698;13.322;2024-03-02T10:31:35;13.23;;;9.67;;
62903;SDS011;49000;50.698;13.322;2024-03-02T10:34:01;16.40;;;8.87;;
62903;SDS011;49000;50.698;13.322;2024-03-02T10:36:28;15.40;;;9.33;;
62903;SDS011;49000;50.698;13.322;2024-03-02T10:38:55;16.10;;;10.27;;
62903;SDS011;49000;50.698;13.322;2024-03-02T10:41:26;13.97;;;9.07;;
62903;SDS011;49000;50.698;13.322;2024-03-02T10:43:52;16.83;;;9.43;;
62903;SDS011;49000;50.698;13.322;2024-03-02T10:46:24;17.90;;;10.77;;
62903;SDS011;49000;50.698;13.322;2024-03-02T10:48:56;13.87;;;9.63;;
62903;SDS011;49000;50.698;13.322;2024-03-02T10:51:24;16.90;;;10.10;;
62903;SDS011;49000;50.698;13.322;2024-03-02T10:53:56;17.50;;;11.03;;
62903;SDS011;49000;50.698;13.322;2024-03-02T10:56:26;16.80;;;10.67;;
62903;SDS011;49000;50.698;13.322;2024-03-02T10:59:01;17.17;;;9.90;;
62903;SDS011;49000;50.698;13.322;2024-03-02T11:01:33;17.83;;;10.83;;
62903;SDS011;49000;50.698;13.322;2024-03-02T11:04:02;15.57;;;9.93;;
62903;SDS011;49000;50.698;13.322;2024-03-02T11:06:29;15.20;;;10.27;;
62903;SDS011;49000;50.698;13.322;2024-03-02T11:08:58;15.90;;;10.37;;
62903;SDS011;49000;50.698;13.322;2024-03-02T11:11:32;20.57;;;10.67;;
62903;SDS011;49000;50.698;13.322;2024-03-02T11:14:01;15.23;;;9.50;;
62903;SDS011;49000;50.698;13.322;2024-03-02T11:16:36;23.93;;;12.50;;
62903;SDS011;49000;50.698;13.322;2024-03-02T11:19:04;23.97;;;13.50;;
62903;SDS011;49000;50.698;13.322;2024-03-02T11:21:32;24.67;;;13.80;;
62903;SDS011;49000;50.698;13.322;2024-03-02T11:23:59;26.10;;;13.13;;
62903;SDS011;49000;50.698;13.322;2024-03-02T11:26:24;26.03;;;14.20;;
62903;SDS011;49000;50.698;13.322;2024-03-02T11:28:50;24.33;;;13.17;;
62903;SDS011;49000;50.698;13.322;2024-03-02T11:31:16;25.40;;;14.80;;
62903;SDS011;49000;50.698;13.322;2024-03-02T11:33:42;26.03;;;12.53;;
62903;SDS011;49000;50.698;13.322;2024-03-02T11:36:08;20.90;;;12.47;;
62903;SDS011;49000;50.698;13.322;2024-03-02T11:38:34;21.23;;;12.13;;
62903;SDS011;49000;50.698;13.322;2024-03-02T11:41:05;21.13;;;12.17;;
62903;SDS011;49000;50.698;13.322;2024-03-02T11:43:33;21.27;;;12.47;;
62903;SDS011;49000;50.698;13.322;2024-03-02T11:46:05;20.97;;;11.87;;
62903;SDS011;49000;50.698;13.322;2024-03-02T11:48:35;21.70;;;12.70;;
62903;SDS011;49000;50.698;13.322;2024-03-02T11:51:02;20.60;;;12.37;;
62903;SDS011;49000;50.698;13.322;2024-03-02T11:53:28;19.47;;;12.27;;
62903;SDS011;49000;50.698;13.322;2024-03-02T11:55:55;20.67;;;11.47;;
62903;SDS011;49000;50.698;13.322;2024-03-02T11:58:21;17.83;;;11.37;;
62903;SDS011;49000;50.698;13.322;2024-03-02T12:00:52;20.57;;;13.30;;
62903;SDS011;49000;50.698;13.322;2024-03-02T12:03:20;18.23;;;11.07;;
62903;SDS011;49000;50.698;13.322;2024-03-02T12:05:50;20.87;;;12.10;;
62903;SDS011;49000;50.698;13.322;2024-03-02T12:08:19;20.53;;;12.03;;
62903;SDS011;49000;50.698;13.322;2024-03-02T12:10:58;19.20;;;11.47;;
62903;SDS011;49000;50.698;13.322;2024-03-02T12:13:24;18.87;;;11.50;;
62903;SDS011;49000;50.698;13.322;2024-03-02T12:15:52;19.60;;;11.33;;
62903;SDS011;49000;50.698;13.322;2024-03-02T12:18:20;24.60;;;13.33;;
62903;SDS011;49000;50.698;13.322;2024-03-02T12:20:46;20.17;;;13.30;;
62903;SDS011;49000;50.698;13.322;2024-03-02T12:23:14;20.67;;;12.30;;
62903;SDS011;49000;50.698;13.322;2024-03-02T12:25:39;19.63;;;12.80;;
62903;SDS011;49000;50.698;13.322;2024-03-02T12:28:05;18.77;;;11.43;;
62903;SDS011;49000;50.698;13.322;2024-03-02T12:30:32;19.10;;;12.80;;
62903;SDS011;49000;50.698;13.322;2024-03-02T12:33:00;17.80;;;11.80;;
62903;SDS011;49000;50.698;13.322;2024-03-02T12:35:25;21.43;;;13.83;;
62903;SDS011;49000;50.698;13.322;2024-03-02T12:37:51;23.87;;;14.07;;
62903;SDS011;49000;50.698;13.322;2024-03-02T12:40:18;25.37;;;15.60;;
62903;SDS011;49000;50.698;13.322;2024-03-02T12:42:45;23.50;;;14.63;;
62903;SDS011;49000;50.698;13.322;2024-03-02T12:45:11;23.43;;;14.73;;
62903;SDS011;49000;50.698;13.322;2024-03-02T12:47:39;21.07;;;14.17;;
62903;SDS011;49000;50.698;13.322;2024-03-02T12:50:05;24.87;;;14.60;;
62903;SDS011;49000;50.698;13.322;2024-03-02T12:52:32;24.57;;;15.20;;
62903;SDS011;49000;50.698;13.322;2024-03-02T12:54:59;25.60;;;15.50;;
62903;SDS011;49000;50.698;13.322;2024-03-02T12:57:25;23.43;;;15.57;;
62903;SDS011;49000;50.698;13.322;2024-03-02T13:00:01;25.93;;;15.70;;
62903;SDS011;49000;50.698;13.322;2024-03-02T13:02:34;24.10;;;15.37;;
62903;SDS011;49000;50.698;13.322;2024-03-02T13:05:00;26.57;;;16.03;;
62903;SDS011;49000;50.698;13.322;2024-03-02T13:07:26;24.23;;;14.90;;
62903;SDS011;49000;50.698;13.322;2024-03-02T13:09:52;26.97;;;15.40;;
62903;SDS011;49000;50.698;13.322;2024-03-02T13:12:22;25.37;;;15.97;;
62903;SDS011;49000;50.698;13.322;2024-03-02T13:14:49;25.80;;;16.23;;
62903;SDS011;49000;50.698;13.322;2024-03-02T13:17:17;26.17;;;15.37;;
62903;SDS011;49000;50.698;13.322;2024-03-02T13:19:52;24.40;;;15.83;;
62903;SDS011;49000;50.698;13.322;2024-03-02T13:22:18;27.13;;;15.83;;
62903;SDS011;49000;50.698;13.322;2024-03-02T13:24:44;26.13;;;14.83;;
62903;SDS011;49000;50.698;13.322;2024-03-02T13:27:10;23.27;;;14.57;;
62903;SDS011;49000;50.698;13.322;2024-03-02T13:29:35;25.67;;;14.67;;
62903;SDS011;49000;50.698;13.322;2024-03-02T13:32:02;23.93;;;15.90;;
62903;SDS011;49000;50.698;13.322;2024-03-02T13:34:27;27.67;;;15.60;;
62903;SDS011;49000;50.698;13.322;2024-03-02T13:36:53;24.20;;;16.00;;
62903;SDS011;49000;50.698;13.322;2024-03-02T13:39:18;27.47;;;16.67;;
62903;SDS011;49000;50.698;13.322;2024-03-02T13:41:44;26.53;;;16.50;;
62903;SDS011;49000;50.698;13.322;2024-03-02T13:44:17;25.07;;;15.43;;
62903;SDS011;49000;50.698;13.322;2024-03-02T13:46:43;23.03;;;14.23;;
62903;SDS011;49000;50.698;13.322;2024-03-02T13:49:10;21.73;;;13.43;;
62903;SDS011;49000;50.698;13.322;2024-03-02T13:51:36;24.97;;;14.00;;
62903;SDS011;49000;50.698;13.322;2024-03-02T13:54:02;31.63;;;15.23;;
62903;SDS011;49000;50.698;13.322;2024-03-02T13:56:28;27.97;;;16.00;;
62903;SDS011;49000;50.698;13.322;2024-03-02T13:58:54;23.73;;;16.00;;
62903;SDS011;49000;50.698;13.322;2024-03-02T14:01:19;24.63;;;15.47;;
62903;SDS011;49000;50.698;13.322;2024-03-02T14:03:45;26.77;;;16.47;;
62903;SDS011;49000;50.698;13.322;2024-03-02T14:06:11;22.60;;;15.93;;
62903;SDS011;49000;50.698;13.322;2024-03-02T14:08:37;25.47;;;16.17;;
62903;SDS011;49000;50.698;13.322;2024-03-02T14:11:02;27.67;;;16.57;;
62903;SDS011;49000;50.698;13.322;2024-03-02T14:13:28;22.87;;;15.37;;
62903;SDS011;49000;50.698;13.322;2024-03-02T14:15:54;24.27;;;15.03;;
62903;SDS011;49000;50.698;13.322;2024-03-02T14:18:19;25.93;;;15.70;;